sensor_id;sensor_type;location;lat;lon;timestamp;pressure;altitude;pressure_sealevel;temperature;humidity
2192;BME280;1102;49.718;11.902;2022-12-22T00:01:18;95702.66;;;0.88;100.00
2192;BME280;1102;49.718;11.902;2022-12-22T00:04:08;95735.03;;;1.20;100.00
2192;BME280;1102;49.718;11.902;2022-12-22T00:06:54;95710.91;;;1.14;100.00
2192;BME280;1102;49.718;11.902;2022-12-22T00:09:39;95723.22;;;1.28;100.00
2192;BME280;1102;49.718;11.902;2022-12-22T00:12:25;95712.94;;;1.17;100.00
2192;BME280;1102;49.718;11.902;2022-12-22T00:15:15;95670.50;;;0.79;100.00
2192;BME280;1102;49.718;11.902;2022-12-22T00:18:02;95723.16;;;1.14;100.00
2192;BME280;1102;49.718;11.902;2022-12-22T00:20:47;95722.03;;;1.20;100.00
2192;BME280;1102;49.718;11.902;2022-12-22T00:23:33;95685.66;;;0.96;100.00
2192;BME280;1102;49.718;11.902;2022-12-22T00:26:18;95705.00;;;1.09;100.00
2192;BME280;1102;49.718;11.902;2022-12-22T00:29:04;95694.72;;;0.99;100.00
2192;BME280;1102;49.718;11.902;2022-12-22T00:31:49;95700.34;;;1.06;100.00
2192;BME280;1102;49.718;11.902;2022-12-22T00:34:39;95690.50;;;1.03;100.00
2192;BME280;1102;49.718;11.902;2022-12-22T00:37:30;95683.56;;;0.98;100.00
2192;BME280;1102;49.718;11.902;2022-12-22T00:40:20;95693.19;;;1.16;100.00
2192;BME280;1102;49.718;11.902;2022-12-22T00:43:06;95664.75;;;1.01;100.00
2192;BME280;1102;49.718;11.902;2022-12-22T00:45:51;95651.75;;;1.01;100.00
2192;BME280;1102;49.718;11.902;2022-12-22T00:48:38;95671.78;;;1.19;100.00
2192;BME280;1102;49.718;11.902;2022-12-22T00:51:26;95664.91;;;1.10;100.00
2192;BME280;1102;49.718;11.902;2022-12-22T00:54:13;95632.69;;;1.06;100.00
2192;BME280;1102;49.718;11.902;2022-12-22T00:56:59;95670.34;;;1.46;100.00
2192;BME280;1102;49.718;11.902;2022-12-22T00:59:47;95644.13;;;1.42;100.00
2192;BME280;1102;49.718;11.902;2022-12-22T01:02:33;95636.00;;;1.63;100.00
2192;BME280;1102;49.718;11.902;2022-12-22T01:05:19;95666.63;;;1.85;100.00
2192;BME280;1102;49.718;11.902;2022-12-22T01:08:04;95642.06;;;1.72;100.00
2192;BME280;1102;49.718;11.902;2022-12-22T01:10:49;95629.31;;;1.57;100.00
2192;BME280;1102;49.718;11.902;2022-12-22T01:13:34;95661.31;;;1.76;100.00
2192;BME280;1102;49.718;11.902;2022-12-22T01:16:20;95652.00;;;1.70;100.00
2192;BME280;1102;49.718;11.902;2022-12-22T01:19:05;95638.03;;;1.66;100.00
2192;BME280;1102;49.718;11.902;2022-12-22T01:21:50;95646.69;;;1.61;100.00
2192;BME280;1102;49.718;11.902;2022-12-22T01:24:35;95625.03;;;1.80;100.00
2192;BME280;1102;49.718;11.902;2022-12-22T01:27:21;95642.19;;;1.81;100.00
2192;BME280;1102;49.718;11.902;2022-12-22T01:30:06;95633.72;;;1.75;100.00
2192;BME280;1102;49.718;11.902;2022-12-22T01:32:52;95632.09;;;1.60;100.00
2192;BME280;1102;49.718;11.902;2022-12-22T01:35:37;95631.38;;;1.73;100.00
2192;BME280;1102;49.718;11.902;2022-12-22T01:38:25;95644.19;;;1.70;100.00
2192;BME280;1102;49.718;11.902;2022-12-22T01:41:15;95629.63;;;1.69;100.00
2192;BME280;1102;49.718;11.902;2022-12-22T01:44:12;95650.03;;;1.94;100.00
2192;BME280;1102;49.718;11.902;2022-12-22T01:47:29;95640.03;;;2.01;100.00
2192;BME280;1102;49.718;11.902;2022-12-22T01:50:18;95608.00;;;1.68;100.00
2192;BME280;1102;49.718;11.902;2022-12-22T01:53:10;95631.03;;;1.94;100.00
2192;BME280;1102;49.718;11.902;2022-12-22T01:55:56;95618.94;;;1.98;100.00
2192;BME280;1102;49.718;11.902;2022-12-22T01:58:46;95605.44;;;1.96;100.00
2192;BME280;1102;49.718;11.902;2022-12-22T02:01:34;95599.34;;;1.87;100.00
2192;BME280;1102;49.718;11.902;2022-12-22T02:04:22;95601.38;;;1.76;100.00
2192;BME280;1102;49.718;11.902;2022-12-22T02:10:20;95572.59;;;1.54;100.00
2192;BME280;1102;49.718;11.902;2022-12-22T02:13:38;95592.09;;;1.70;100.00
2192;BME280;1102;49.718;11.902;2022-12-22T02:16:36;95593.94;;;1.69;100.00
2192;BME280;1102;49.718;11.902;2022-12-22T02:23:09;95590.66;;;1.64;100.00
2192;BME280;1102;49.718;11.902;2022-12-22T02:29:05;95584.84;;;1.67;100.00
2192;BME280;1102;49.718;11.902;2022-12-22T02:31:51;95546.50;;;1.40;100.00
2192;BME280;1102;49.718;11.902;2022-12-22T02:34:37;95551.13;;;1.43;100.00
2192;BME280;1102;49.718;11.902;2022-12-22T02:43:37;95575.84;;;1.59;100.00
2192;BME280;1102;49.718;11.902;2022-12-22T02:46:32;95531.38;;;1.42;100.00
2192;BME280;1102;49.718;11.902;2022-12-22T02:49:25;95569.41;;;1.70;100.00
2192;BME280;1102;49.718;11.902;2022-12-22T02:52:17;95575.88;;;1.73;100.00
2192;BME280;1102;49.718;11.902;2022-12-22T02:55:03;95549.25;;;1.62;100.00
2192;BME280;1102;49.718;11.902;2022-12-22T02:57:52;95551.78;;;1.81;100.00
2192;BME280;1102;49.718;11.902;2022-12-22T03:00:38;95560.53;;;1.85;100.00
2192;BME280;1102;49.718;11.902;2022-12-22T03:03:24;95526.00;;;1.52;100.00
2192;BME280;1102;49.718;11.902;2022-12-22T03:06:09;95534.94;;;1.60;100.00
2192;BME280;1102;49.718;11.902;2022-12-22T03:08:54;95541.91;;;1.64;100.00
2192;BME280;1102;49.718;11.902;2022-12-22T03:11:39;95551.78;;;1.81;100.00
2192;BME280;1102;49.718;11.902;2022-12-22T03:14:25;95523.59;;;1.69;100.00
2192;BME280;1102;49.718;11.902;2022-12-22T03:17:10;95521.56;;;1.66;100.00
2192;BME280;1102;49.718;11.902;2022-12-22T03:19:55;95511.13;;;1.53;100.00
2192;BME280;1102;49.718;11.902;2022-12-22T03:22:40;95523.69;;;1.51;100.00
2192;BME280;1102;49.718;11.902;2022-12-22T03:25:26;95530.75;;;1.77;100.00
2192;BME280;1102;49.718;11.902;2022-12-22T03:28:11;95516.03;;;2.09;100.00
2192;BME280;1102;49.718;11.902;2022-12-22T03:30:38;95519.59;;;2.13;100.00
2192;BME280;1102;49.718;11.902;2022-12-22T03:33:05;95508.97;;;2.23;100.00
2192;BME280;1102;49.718;11.902;2022-12-22T03:35:32;95504.13;;;2.30;100.00
2192;BME280;1102;49.718;11.902;2022-12-22T03:37:59;95508.47;;;2.35;100.00
2192;BME280;1102;49.718;11.902;2022-12-22T03:40:30;95459.28;;;2.06;100.00
2192;BME280;1102;49.718;11.902;2022-12-22T03:42:57;95485.59;;;2.32;100.00
2192;BME280;1102;49.718;11.902;2022-12-22T03:45:42;95458.94;;;2.21;100.00
2192;BME280;1102;49.718;11.902;2022-12-22T03:48:27;95449.16;;;2.41;100.00
2192;BME280;1102;49.718;11.902;2022-12-22T03:50:54;95447.53;;;2.31;100.00
2192;BME280;1102;49.718;11.902;2022-12-22T03:53:20;95457.91;;;2.45;100.00
2192;BME280;1102;49.718;11.902;2022-12-22T03:55:47;95476.00;;;2.63;100.00
2192;BME280;1102;49.718;11.902;2022-12-22T03:58:14;95486.50;;;2.72;100.00
2192;BME280;1102;49.718;11.902;2022-12-22T04:00:40;95459.63;;;2.49;100.00
2192;BME280;1102;49.718;11.902;2022-12-22T04:03:07;95487.88;;;2.70;100.00
2192;BME280;1102;49.718;11.902;2022-12-22T04:05:34;95468.91;;;2.55;100.00
2192;BME280;1102;49.718;11.902;2022-12-22T04:08:01;95490.06;;;2.76;100.00
2192;BME280;1102;49.718;11.902;2022-12-22T04:10:27;95469.69;;;2.56;100.00
2192;BME280;1102;49.718;11.902;2022-12-22T04:13:12;95473.44;;;2.50;100.00
2192;BME280;1102;49.718;11.902;2022-12-22T04:15:39;95462.38;;;2.44;100.00
2192;BME280;1102;49.718;11.902;2022-12-22T04:18:06;95482.13;;;2.59;100.00
2192;BME280;1102;49.718;11.902;2022-12-22T04:20:33;95451.56;;;2.37;100.00
2192;BME280;1102;49.718;11.902;2022-12-22T04:23:00;95477.19;;;2.57;100.00
2192;BME280;1102;49.718;11.902;2022-12-22T04:25:27;95434.91;;;2.47;100.00
2192;BME280;1102;49.718;11.902;2022-12-22T04:27:55;95476.19;;;2.89;100.00
2192;BME280;1102;49.718;11.902;2022-12-22T04:30:24;95432.56;;;2.59;100.00
2192;BME280;1102;49.718;11.902;2022-12-22T04:32:51;95443.63;;;2.64;100.00
2192;BME280;1102;49.718;11.902;2022-12-22T04:35:17;95459.34;;;2.73;100.00
2192;BME280;1102;49.718;11.902;2022-12-22T04:37:44;95460.28;;;2.77;100.00
2192;BME280;1102;49.718;11.902;2022-12-22T04:40:12;95472.19;;;2.92;100.00
2192;BME280;1102;49.718;11.902;2022-12-22T04:42:38;95435.69;;;2.70;100.00
2192;BME280;1102;49.718;11.902;2022-12-22T04:45:05;95444.53;;;2.82;100.00
2192;BME280;1102;49.718;11.902;2022-12-22T04:47:32;95458.38;;;2.91;100.00
2192;BME280;1102;49.718;11.902;2022-12-22T04:49:59;95448.25;;;2.90;100.00
2192;BME280;1102;49.718;11.902;2022-12-22T04:52:25;95451.38;;;3.01;100.00
2192;BME280;1102;49.718;11.902;2022-12-22T04:54:52;95436.94;;;3.03;100.00
2192;BME280;1102;49.718;11.902;2022-12-22T04:57:19;95422.91;;;2.90;100.00
2192;BME280;1102;49.718;11.902;2022-12-22T04:59:46;95432.69;;;3.07;100.00
2192;BME280;1102;49.718;11.902;2022-12-22T05:02:13;95406.06;;;2.96;100.00
2192;BME280;1102;49.718;11.902;2022-12-22T05:04:40;95399.00;;;2.97;100.00
2192;BME280;1102;49.718;11.902;2022-12-22T05:07:06;95429.84;;;3.26;100.00
2192;BME280;1102;49.718;11.902;2022-12-22T05:09:36;95428.31;;;3.25;100.00
2192;BME280;1102;49.718;11.902;2022-12-22T05:12:03;95429.22;;;3.29;100.00
2192;BME280;1102;49.718;11.902;2022-12-22T05:14:49;95357.44;;;2.78;100.00
2192;BME280;1102;49.718;11.902;2022-12-22T05:17:16;95389.50;;;3.01;100.00
2192;BME280;1102;49.718;11.902;2022-12-22T05:19:43;95416.78;;;3.26;100.00
2192;BME280;1102;49.718;11.902;2022-12-22T05:22:10;95426.63;;;3.29;100.00
2192;BME280;1102;49.718;11.902;2022-12-22T05:24:36;95397.53;;;3.13;100.00
2192;BME280;1102;49.718;11.902;2022-12-22T05:27:03;95384.63;;;3.08;100.00
2192;BME280;1102;49.718;11.902;2022-12-22T05:29:30;95408.91;;;3.17;100.00
2192;BME280;1102;49.718;11.902;2022-12-22T05:31:57;95393.44;;;3.21;100.00
2192;BME280;1102;49.718;11.902;2022-12-22T05:34:23;95399.91;;;3.32;100.00
2192;BME280;1102;49.718;11.902;2022-12-22T05:36:51;95381.03;;;3.04;100.00
2192;BME280;1102;49.718;11.902;2022-12-22T05:39:18;95426.09;;;3.10;100.00
2192;BME280;1102;49.718;11.902;2022-12-22T05:41:45;95430.03;;;3.38;100.00
2192;BME280;1102;49.718;11.902;2022-12-22T05:44:11;95404.03;;;3.24;100.00
2192;BME280;1102;49.718;11.902;2022-12-22T05:46:38;95428.72;;;3.49;100.00
2192;BME280;1102;49.718;11.902;2022-12-22T05:49:05;95402.53;;;3.41;100.00
2192;BME280;1102;49.718;11.902;2022-12-22T05:51:32;95407.91;;;3.36;100.00
2192;BME280;1102;49.718;11.902;2022-12-22T05:53:58;95413.47;;;3.43;100.00
2192;BME280;1102;49.718;11.902;2022-12-22T05:56:25;95403.94;;;3.38;100.00
2192;BME280;1102;49.718;11.902;2022-12-22T05:58:52;95436.91;;;3.65;100.00
2192;BME280;1102;49.718;11.902;2022-12-22T06:01:18;95423.03;;;3.47;100.00
2192;BME280;1102;49.718;11.902;2022-12-22T06:03:45;95439.63;;;3.60;100.00
2192;BME280;1102;49.718;11.902;2022-12-22T06:06:12;95433.50;;;3.65;100.00
2192;BME280;1102;49.718;11.902;2022-12-22T06:08:38;95433.22;;;3.66;100.00
2192;BME280;1102;49.718;11.902;2022-12-22T06:11:05;95389.94;;;3.34;100.00
2192;BME280;1102;49.718;11.902;2022-12-22T06:13:32;95399.78;;;3.37;100.00
2192;BME280;1102;49.718;11.902;2022-12-22T06:15:58;95397.47;;;3.36;100.00
2192;BME280;1102;49.718;11.902;2022-12-22T06:18:25;95437.44;;;3.45;100.00
2192;BME280;1102;49.718;11.902;2022-12-22T06:20:52;95430.50;;;3.40;100.00
2192;BME280;1102;49.718;11.902;2022-12-22T06:23:20;95396.34;;;3.28;100.00
2192;BME280;1102;49.718;11.902;2022-12-22T06:25:58;95428.03;;;3.35;100.00
2192;BME280;1102;49.718;11.902;2022-12-22T06:28:25;95433.00;;;3.54;100.00
2192;BME280;1102;49.718;11.902;2022-12-22T06:30:53;95433.75;;;3.46;100.00
2192;BME280;1102;49.718;11.902;2022-12-22T06:33:20;95378.47;;;3.13;100.00
2192;BME280;1102;49.718;11.902;2022-12-22T06:35:47;95432.72;;;3.55;100.00
2192;BME280;1102;49.718;11.902;2022-12-22T06:38:23;95375.16;;;3.21;100.00
2192;BME280;1102;49.718;11.902;2022-12-22T06:40:49;95429.78;;;3.57;100.00
2192;BME280;1102;49.718;11.902;2022-12-22T06:43:16;95428.56;;;3.54;100.00
2192;BME280;1102;49.718;11.902;2022-12-22T06:45:42;95393.28;;;3.26;100.00
2192;BME280;1102;49.718;11.902;2022-12-22T06:48:10;95425.94;;;3.54;100.00
2192;BME280;1102;49.718;11.902;2022-12-22T06:50:38;95395.59;;;3.28;100.00
2192;BME280;1102;49.718;11.902;2022-12-22T06:53:06;95407.47;;;3.42;100.00
2192;BME280;1102;49.718;11.902;2022-12-22T06:55:33;95389.44;;;3.32;100.00
2192;BME280;1102;49.718;11.902;2022-12-22T06:58:00;95414.09;;;3.48;100.00
2192;BME280;1102;49.718;11.902;2022-12-22T07:00:27;95391.78;;;3.42;100.00
2192;BME280;1102;49.718;11.902;2022-12-22T07:02:54;95412.91;;;3.63;100.00
2192;BME280;1102;49.718;11.902;2022-12-22T07:05:21;95332.56;;;3.20;100.00
2192;BME280;1102;49.718;11.902;2022-12-22T07:07:51;95408.28;;;3.60;100.00
2192;BME280;1102;49.718;11.902;2022-12-22T07:10:18;95385.69;;;3.55;100.00
2192;BME280;1102;49.718;11.902;2022-12-22T07:13:05;95375.38;;;3.59;100.00
2192;BME280;1102;49.718;11.902;2022-12-22T07:15:46;95331.25;;;3.40;100.00
2192;BME280;1102;49.718;11.902;2022-12-22T07:18:22;95355.41;;;3.54;100.00
2192;BME280;1102;49.718;11.902;2022-12-22T07:20:49;95381.09;;;3.61;100.00
2192;BME280;1102;49.718;11.902;2022-12-22T07:23:16;95400.63;;;3.72;100.00
2192;BME280;1102;49.718;11.902;2022-12-22T07:25:43;95361.22;;;3.43;100.00
2192;BME280;1102;49.718;11.902;2022-12-22T07:28:10;95349.69;;;3.35;100.00
2192;BME280;1102;49.718;11.902;2022-12-22T07:30:43;95382.78;;;3.66;100.00
2192;BME280;1102;49.718;11.902;2022-12-22T07:33:10;95373.84;;;3.58;100.00
2192;BME280;1102;49.718;11.902;2022-12-22T07:35:37;95334.00;;;3.35;100.00
2192;BME280;1102;49.718;11.902;2022-12-22T07:38:03;95341.19;;;3.30;100.00
2192;BME280;1102;49.718;11.902;2022-12-22T07:40:30;95298.00;;;3.15;100.00
2192;BME280;1102;49.718;11.902;2022-12-22T07:42:58;95371.28;;;3.75;100.00
2192;BME280;1102;49.718;11.902;2022-12-22T07:45:25;95363.72;;;3.74;100.00
2192;BME280;1102;49.718;11.902;2022-12-22T07:47:58;95391.13;;;3.94;100.00
2192;BME280;1102;49.718;11.902;2022-12-22T07:50:24;95386.81;;;3.98;100.00
2192;BME280;1102;49.718;11.902;2022-12-22T07:52:58;95331.88;;;3.72;100.00
2192;BME280;1102;49.718;11.902;2022-12-22T07:55:27;95382.34;;;3.98;100.00
2192;BME280;1102;49.718;11.902;2022-12-22T07:57:54;95372.34;;;4.00;100.00
2192;BME280;1102;49.718;11.902;2022-12-22T08:00:22;95368.34;;;3.94;100.00
2192;BME280;1102;49.718;11.902;2022-12-22T08:02:53;95366.06;;;4.01;100.00
2192;BME280;1102;49.718;11.902;2022-12-22T08:05:22;95358.81;;;4.07;100.00
2192;BME280;1102;49.718;11.902;2022-12-22T08:07:50;95354.69;;;4.06;100.00
2192;BME280;1102;49.718;11.902;2022-12-22T08:10:18;95130.06;;;2.62;100.00
2192;BME280;1102;49.718;11.902;2022-12-22T08:12:45;95289.78;;;3.82;100.00
2192;BME280;1102;49.718;11.902;2022-12-22T08:15:12;95343.91;;;4.16;100.00
2192;BME280;1102;49.718;11.902;2022-12-22T08:17:39;95324.97;;;4.10;100.00
2192;BME280;1102;49.718;11.902;2022-12-22T08:20:06;95327.59;;;4.10;100.00
2192;BME280;1102;49.718;11.902;2022-12-22T08:22:33;95245.50;;;3.60;100.00
2192;BME280;1102;49.718;11.902;2022-12-22T08:25:00;95315.91;;;3.91;100.00
2192;BME280;1102;49.718;11.902;2022-12-22T08:27:37;95347.59;;;4.24;100.00
2192;BME280;1102;49.718;11.902;2022-12-22T08:30:06;95349.56;;;4.35;100.00
2192;BME280;1102;49.718;11.902;2022-12-22T08:32:35;95336.34;;;4.32;100.00
2192;BME280;1102;49.718;11.902;2022-12-22T08:35:04;95325.59;;;4.16;100.00
2192;BME280;1102;49.718;11.902;2022-12-22T08:37:32;95331.88;;;4.41;100.00
2192;BME280;1102;49.718;11.902;2022-12-22T08:40:09;95319.13;;;4.31;100.00
2192;BME280;1102;49.718;11.902;2022-12-22T08:42:38;95167.59;;;3.36;100.00
2192;BME280;1102;49.718;11.902;2022-12-22T08:45:06;95311.41;;;4.26;100.00
2192;BME280;1102;49.718;11.902;2022-12-22T08:47:34;95327.69;;;4.49;100.00
2192;BME280;1102;49.718;11.902;2022-12-22T08:50:02;95312.09;;;4.69;100.00
2192;BME280;1102;49.718;11.902;2022-12-22T08:52:29;95318.66;;;4.84;100.00
2192;BME280;1102;49.718;11.902;2022-12-22T08:54:56;95306.78;;;4.87;100.00
2192;BME280;1102;49.718;11.902;2022-12-22T08:57:23;95313.97;;;4.98;100.00
2192;BME280;1102;49.718;11.902;2022-12-22T08:59:50;95287.56;;;4.83;100.00
2192;BME280;1102;49.718;11.902;2022-12-22T09:02:17;95320.56;;;5.04;100.00
2192;BME280;1102;49.718;11.902;2022-12-22T09:04:44;95339.06;;;5.38;100.00
2192;BME280;1102;49.718;11.902;2022-12-22T09:07:11;95340.94;;;5.37;100.00
2192;BME280;1102;49.718;11.902;2022-12-22T09:09:37;95298.84;;;5.04;100.00
2192;BME280;1102;49.718;11.902;2022-12-22T09:12:04;95350.91;;;5.44;100.00
2192;BME280;1102;49.718;11.902;2022-12-22T09:14:31;95355.66;;;5.50;100.00
2192;BME280;1102;49.718;11.902;2022-12-22T09:16:59;95349.00;;;5.53;100.00
2192;BME280;1102;49.718;11.902;2022-12-22T09:19:25;95321.69;;;5.54;100.00
2192;BME280;1102;49.718;11.902;2022-12-22T09:21:53;95341.03;;;5.70;100.00
2192;BME280;1102;49.718;11.902;2022-12-22T09:24:20;95357.28;;;5.84;100.00
2192;BME280;1102;49.718;11.902;2022-12-22T09:26:46;95346.22;;;5.79;100.00
2192;BME280;1102;49.718;11.902;2022-12-22T09:29:13;95340.09;;;5.75;100.00
2192;BME280;1102;49.718;11.902;2022-12-22T09:31:43;95347.97;;;5.96;100.00
2192;BME280;1102;49.718;11.902;2022-12-22T09:34:10;95338.91;;;5.84;100.00
2192;BME280;1102;49.718;11.902;2022-12-22T09:36:43;95330.66;;;5.74;100.00
2192;BME280;1102;49.718;11.902;2022-12-22T09:39:10;95355.84;;;5.96;100.00
2192;BME280;1102;49.718;11.902;2022-12-22T09:41:52;95299.59;;;5.63;100.00
2192;BME280;1102;49.718;11.902;2022-12-22T09:46:58;95357.25;;;6.14;100.00
2192;BME280;1102;49.718;11.902;2022-12-22T09:49:26;95344.09;;;6.02;100.00
2192;BME280;1102;49.718;11.902;2022-12-22T09:51:58;95312.34;;;5.95;100.00
2192;BME280;1102;49.718;11.902;2022-12-22T09:54:26;95363.19;;;6.23;100.00
2192;BME280;1102;49.718;11.902;2022-12-22T09:56:55;95319.72;;;6.01;100.00
2192;BME280;1102;49.718;11.902;2022-12-22T09:59:25;95360.34;;;6.16;100.00
2192;BME280;1102;49.718;11.902;2022-12-22T10:09:55;95352.78;;;6.47;100.00
2192;BME280;1102;49.718;11.902;2022-12-22T10:12:24;95316.66;;;6.32;100.00
2192;BME280;1102;49.718;11.902;2022-12-22T10:14:52;95331.56;;;6.52;100.00
2192;BME280;1102;49.718;11.902;2022-12-22T10:17:25;95362.84;;;6.91;100.00
2192;BME280;1102;49.718;11.902;2022-12-22T10:22:59;95379.66;;;7.23;100.00
2192;BME280;1102;49.718;11.902;2022-12-22T10:28:26;95380.56;;;7.51;100.00
2192;BME280;1102;49.718;11.902;2022-12-22T10:31:15;95392.94;;;7.63;100.00
2192;BME280;1102;49.718;11.902;2022-12-22T10:33:44;95370.38;;;7.50;100.00
2192;BME280;1102;49.718;11.902;2022-12-22T10:36:25;95388.53;;;7.55;100.00
2192;BME280;1102;49.718;11.902;2022-12-22T10:41:24;95368.38;;;7.34;100.00
2192;BME280;1102;49.718;11.902;2022-12-22T10:43:58;95386.91;;;7.38;100.00
2192;BME280;1102;49.718;11.902;2022-12-22T10:46:32;95381.50;;;7.34;100.00
2192;BME280;1102;49.718;11.902;2022-12-22T10:51:43;95386.91;;;7.26;100.00
2192;BME280;1102;49.718;11.902;2022-12-22T10:54:43;95375.19;;;7.35;100.00
2192;BME280;1102;49.718;11.902;2022-12-22T11:00:01;95375.28;;;7.39;100.00
2192;BME280;1102;49.718;11.902;2022-12-22T11:02:36;95377.91;;;7.39;100.00
2192;BME280;1102;49.718;11.902;2022-12-22T11:05:06;95383.19;;;7.39;100.00
2192;BME280;1102;49.718;11.902;2022-12-22T11:07:40;95351.38;;;7.20;100.00
2192;BME280;1102;49.718;11.902;2022-12-22T11:23:32;95356.66;;;7.32;100.00
2192;BME280;1102;49.718;11.902;2022-12-22T11:26:40;95369.03;;;7.56;100.00
2192;BME280;1102;49.718;11.902;2022-12-22T11:32:03;95377.09;;;7.87;100.00
2192;BME280;1102;49.718;11.902;2022-12-22T11:35:16;95350.28;;;7.69;100.00
2192;BME280;1102;49.718;11.902;2022-12-22T11:40:48;95371.31;;;7.82;100.00
2192;BME280;1102;49.718;11.902;2022-12-22T11:43:25;95363.41;;;7.82;100.00
2192;BME280;1102;49.718;11.902;2022-12-22T11:56:46;95319.94;;;7.48;100.00
2192;BME280;1102;49.718;11.902;2022-12-22T11:59:33;95313.03;;;7.43;100.00
2192;BME280;1102;49.718;11.902;2022-12-22T12:10:41;95292.59;;;7.12;100.00
2192;BME280;1102;49.718;11.902;2022-12-22T12:13:17;95294.88;;;7.14;100.00
2192;BME280;1102;49.718;11.902;2022-12-22T12:21:27;95295.66;;;7.02;100.00
2192;BME280;1102;49.718;11.902;2022-12-22T12:29:48;95279.78;;;6.98;100.00
2192;BME280;1102;49.718;11.902;2022-12-22T12:41:55;95278.25;;;6.85;100.00
2192;BME280;1102;49.718;11.902;2022-12-22T12:44:26;95265.44;;;6.84;100.00
2192;BME280;1102;49.718;11.902;2022-12-22T12:47:01;95228.31;;;6.48;100.00
2192;BME280;1102;49.718;11.902;2022-12-22T12:52:00;95240.47;;;6.65;100.00
2192;BME280;1102;49.718;11.902;2022-12-22T13:08:16;95279.13;;;6.89;100.00
2192;BME280;1102;49.718;11.902;2022-12-22T13:10:48;95266.41;;;6.79;100.00
2192;BME280;1102;49.718;11.902;2022-12-22T13:21:18;95275.72;;;6.89;100.00
2192;BME280;1102;49.718;11.902;2022-12-22T13:26:52;95244.94;;;6.65;100.00
2192;BME280;1102;49.718;11.902;2022-12-22T13:31:50;95278.00;;;6.90;100.00
2192;BME280;1102;49.718;11.902;2022-12-22T13:36:48;95265.63;;;6.78;100.00
2192;BME280;1102;49.718;11.902;2022-12-22T13:39:16;95267.72;;;6.73;100.00
2192;BME280;1102;49.718;11.902;2022-12-22T13:41:44;95256.56;;;6.76;100.00
2192;BME280;1102;49.718;11.902;2022-12-22T13:44:28;95275.72;;;6.76;100.00
2192;BME280;1102;49.718;11.902;2022-12-22T13:47:10;95295.44;;;6.95;100.00
2192;BME280;1102;49.718;11.902;2022-12-22T13:49:39;95259.59;;;6.66;100.00
2192;BME280;1102;49.718;11.902;2022-12-22T13:52:27;95267.63;;;6.69;100.00
2192;BME280;1102;49.718;11.902;2022-12-22T13:54:54;95272.97;;;6.73;100.00
2192;BME280;1102;49.718;11.902;2022-12-22T13:57:23;95258.28;;;6.60;100.00
2192;BME280;1102;49.718;11.902;2022-12-22T13:59:50;95245.38;;;6.55;100.00
2192;BME280;1102;49.718;11.902;2022-12-22T14:02:20;95286.22;;;6.76;100.00
2192;BME280;1102;49.718;11.902;2022-12-22T14:05:06;95291.38;;;6.85;100.00
2192;BME280;1102;49.718;11.902;2022-12-22T14:07:33;95305.28;;;6.86;100.00
2192;BME280;1102;49.718;11.902;2022-12-22T14:10:00;95273.63;;;6.70;100.00
2192;BME280;1102;49.718;11.902;2022-12-22T14:12:29;95306.03;;;6.86;100.00
2192;BME280;1102;49.718;11.902;2022-12-22T14:14:58;95294.00;;;6.73;100.00
2192;BME280;1102;49.718;11.902;2022-12-22T14:19:59;95324.75;;;6.85;100.00
2192;BME280;1102;49.718;11.902;2022-12-22T14:22:31;95333.19;;;6.90;100.00
2192;BME280;1102;49.718;11.902;2022-12-22T14:25:06;95287.63;;;6.62;100.00
2192;BME280;1102;49.718;11.902;2022-12-22T14:27:41;95343.94;;;6.97;100.00
2192;BME280;1102;49.718;11.902;2022-12-22T14:30:21;95349.31;;;7.01;100.00
2192;BME280;1102;49.718;11.902;2022-12-22T14:32:51;95352.59;;;6.98;100.00
2192;BME280;1102;49.718;11.902;2022-12-22T14:42:59;95368.78;;;7.00;100.00
2192;BME280;1102;49.718;11.902;2022-12-22T14:45:27;95308.31;;;6.63;100.00
2192;BME280;1102;49.718;11.902;2022-12-22T14:47:54;95349.94;;;6.86;100.00
2192;BME280;1102;49.718;11.902;2022-12-22T14:50:26;95345.97;;;6.79;100.00
2192;BME280;1102;49.718;11.902;2022-12-22T14:52:55;95326.34;;;6.65;100.00
2192;BME280;1102;49.718;11.902;2022-12-22T14:55:27;95366.56;;;6.90;100.00
2192;BME280;1102;49.718;11.902;2022-12-22T15:03:02;95393.63;;;6.90;100.00
2192;BME280;1102;49.718;11.902;2022-12-22T15:05:32;95381.13;;;6.87;100.00
2192;BME280;1102;49.718;11.902;2022-12-22T15:08:02;95386.06;;;6.89;100.00
2192;BME280;1102;49.718;11.902;2022-12-22T15:10:43;95356.44;;;6.67;100.00
2192;BME280;1102;49.718;11.902;2022-12-22T15:13:15;95369.06;;;6.74;100.00
2192;BME280;1102;49.718;11.902;2022-12-22T15:15:43;95402.59;;;6.89;100.00
2192;BME280;1102;49.718;11.902;2022-12-22T15:18:12;95381.22;;;6.78;100.00
2192;BME280;1102;49.718;11.902;2022-12-22T15:20:40;95411.56;;;6.88;100.00
2192;BME280;1102;49.718;11.902;2022-12-22T15:23:13;95386.91;;;6.68;100.00
2192;BME280;1102;49.718;11.902;2022-12-22T15:25:42;95388.44;;;6.69;100.00
2192;BME280;1102;49.718;11.902;2022-12-22T15:28:08;95422.50;;;6.90;100.00
2192;BME280;1102;49.718;11.902;2022-12-22T15:30:35;95429.63;;;6.90;100.00
2192;BME280;1102;49.718;11.902;2022-12-22T15:33:02;95412.28;;;6.76;100.00
2192;BME280;1102;49.718;11.902;2022-12-22T15:35:31;95424.78;;;6.79;100.00
2192;BME280;1102;49.718;11.902;2022-12-22T15:37:59;95426.09;;;6.73;100.00
2192;BME280;1102;49.718;11.902;2022-12-22T15:40:27;95455.59;;;6.91;100.00
2192;BME280;1102;49.718;11.902;2022-12-22T15:42:54;95436.59;;;6.73;100.00
2192;BME280;1102;49.718;11.902;2022-12-22T15:45:21;95461.94;;;6.90;100.00
2192;BME280;1102;49.718;11.902;2022-12-22T15:47:51;95460.06;;;6.91;100.00
2192;BME280;1102;49.718;11.902;2022-12-22T15:50:22;95427.69;;;6.66;100.00
2192;BME280;1102;49.718;11.902;2022-12-22T15:52:52;95473.53;;;6.89;100.00
2192;BME280;1102;49.718;11.902;2022-12-22T15:55:20;95423.47;;;6.52;100.00
2192;BME280;1102;49.718;11.902;2022-12-22T15:57:49;95444.97;;;6.67;100.00
2192;BME280;1102;49.718;11.902;2022-12-22T16:00:17;95460.56;;;6.72;100.00
2192;BME280;1102;49.718;11.902;2022-12-22T16:02:44;95483.53;;;6.75;100.00
2192;BME280;1102;49.718;11.902;2022-12-22T16:05:13;95470.94;;;6.68;100.00
2192;BME280;1102;49.718;11.902;2022-12-22T16:07:41;95490.13;;;6.81;100.00
2192;BME280;1102;49.718;11.902;2022-12-22T16:10:26;95445.72;;;6.55;100.00
2192;BME280;1102;49.718;11.902;2022-12-22T16:12:55;95491.69;;;6.82;100.00